sensor_id;sensor_type;location;lat;lon;timestamp;temperature;humidity
39665;DHT22;26679;50.872;4.332;2024-03-22T00:01:10;20.70;80.20
39665;DHT22;26679;50.872;4.332;2024-03-22T00:03:36;20.70;80.30
39665;DHT22;26679;50.872;4.332;2024-03-22T00:06:01;20.70;80.30
39665;DHT22;26679;50.872;4.332;2024-03-22T00:08:27;20.70;80.30
39665;DHT22;26679;50.872;4.332;2024-03-22T00:10:52;20.70;80.30
39665;DHT22;26679;50.872;4.332;2024-03-22T00:13:18;20.70;80.40
39665;DHT22;26679;50.872;4.332;2024-03-22T00:15:43;20.60;80.30
39665;DHT22;26679;50.872;4.332;2024-03-22T00:18:10;20.60;80.30
39665;DHT22;26679;50.872;4.332;2024-03-22T00:20:36;20.60;80.80
39665;DHT22;26679;50.872;4.332;2024-03-22T00:23:01;20.60;80.30
39665;DHT22;26679;50.872;4.332;2024-03-22T00:25:27;20.60;80.30
39665;DHT22;26679;50.872;4.332;2024-03-22T00:27:52;20.60;80.30
39665;DHT22;26679;50.872;4.332;2024-03-22T00:30:19;20.60;80.30
39665;DHT22;26679;50.872;4.332;2024-03-22T00:32:44;20.60;80.30
39665;DHT22;26679;50.872;4.332;2024-03-22T00:35:10;20.60;80.30
39665;DHT22;26679;50.872;4.332;2024-03-22T00:37:36;20.60;80.30
39665;DHT22;26679;50.872;4.332;2024-03-22T00:40:01;20.60;80.30
39665;DHT22;26679;50.872;4.332;2024-03-22T00:42:27;20.60;80.30
39665;DHT22;26679;50.872;4.332;2024-03-22T00:44:52;20.60;80.30
39665;DHT22;26679;50.872;4.332;2024-03-22T00:47:18;20.60;80.30
39665;DHT22;26679;50.872;4.332;2024-03-22T00:49:43;20.60;80.30
39665;DHT22;26679;50.872;4.332;2024-03-22T00:52:09;20.60;80.30
39665;DHT22;26679;50.872;4.332;2024-03-22T00:54:34;20.50;80.30
39665;DHT22;26679;50.872;4.332;2024-03-22T00:56:59;20.50;80.30
39665;DHT22;26679;50.872;4.332;2024-03-22T00:59:25;20.50;80.30
39665;DHT22;26679;50.872;4.332;2024-03-22T01:01:50;20.50;80.30
39665;DHT22;26679;50.872;4.332;2024-03-22T01:04:16;20.50;80.30
39665;DHT22;26679;50.872;4.332;2024-03-22T01:06:41;20.50;80.30
39665;DHT22;26679;50.872;4.332;2024-03-22T01:09:07;20.50;80.30
39665;DHT22;26679;50.872;4.332;2024-03-22T01:11:32;20.50;80.30
39665;DHT22;26679;50.872;4.332;2024-03-22T01:13:58;20.50;80.30
39665;DHT22;26679;50.872;4.332;2024-03-22T01:16:23;20.50;80.30
39665;DHT22;26679;50.872;4.332;2024-03-22T01:18:49;20.50;80.30
39665;DHT22;26679;50.872;4.332;2024-03-22T01:21:14;20.50;80.30
39665;DHT22;26679;50.872;4.332;2024-03-22T01:23:40;20.50;80.30
39665;DHT22;26679;50.872;4.332;2024-03-22T01:26:06;20.50;80.30
39665;DHT22;26679;50.872;4.332;2024-03-22T01:28:31;20.50;80.30
39665;DHT22;26679;50.872;4.332;2024-03-22T01:30:56;20.40;80.20
39665;DHT22;26679;50.872;4.332;2024-03-22T01:33:22;20.50;80.30
39665;DHT22;26679;50.872;4.332;2024-03-22T01:35:47;20.40;80.20
39665;DHT22;26679;50.872;4.332;2024-03-22T01:38:13;20.40;80.20
39665;DHT22;26679;50.872;4.332;2024-03-22T01:40:38;20.40;80.20
39665;DHT22;26679;50.872;4.332;2024-03-22T01:43:04;20.40;80.20
39665;DHT22;26679;50.872;4.332;2024-03-22T01:45:31;20.40;80.20
39665;DHT22;26679;50.872;4.332;2024-03-22T01:47:57;20.40;80.20
39665;DHT22;26679;50.872;4.332;2024-03-22T01:50:23;20.40;80.30
39665;DHT22;26679;50.872;4.332;2024-03-22T01:52:48;20.30;80.20
39665;DHT22;26679;50.872;4.332;2024-03-22T01:55:13;20.40;80.30
39665;DHT22;26679;50.872;4.332;2024-03-22T01:57:39;20.40;80.90
39665;DHT22;26679;50.872;4.332;2024-03-22T02:00:05;20.40;80.30
39665;DHT22;26679;50.872;4.332;2024-03-22T02:02:31;20.40;80.40
39665;DHT22;26679;50.872;4.332;2024-03-22T02:04:56;20.40;80.40
39665;DHT22;26679;50.872;4.332;2024-03-22T02:07:22;20.30;80.30
39665;DHT22;26679;50.872;4.332;2024-03-22T02:09:47;20.30;80.30
39665;DHT22;26679;50.872;4.332;2024-03-22T02:12:13;20.30;80.30
39665;DHT22;26679;50.872;4.332;2024-03-22T02:14:39;20.30;80.30
39665;DHT22;26679;50.872;4.332;2024-03-22T02:17:04;20.30;80.40
39665;DHT22;26679;50.872;4.332;2024-03-22T02:19:30;20.30;80.40
39665;DHT22;26679;50.872;4.332;2024-03-22T02:21:55;20.30;80.40
39665;DHT22;26679;50.872;4.332;2024-03-22T02:24:20;20.30;80.40
39665;DHT22;26679;50.872;4.332;2024-03-22T02:26:46;20.30;80.40
39665;DHT22;26679;50.872;4.332;2024-03-22T02:29:11;20.30;80.40
39665;DHT22;26679;50.872;4.332;2024-03-22T02:31:37;20.30;80.40
39665;DHT22;26679;50.872;4.332;2024-03-22T02:34:02;20.20;80.40
39665;DHT22;26679;50.872;4.332;2024-03-22T02:36:28;20.30;80.40
39665;DHT22;26679;50.872;4.332;2024-03-22T02:38:53;20.30;80.40
39665;DHT22;26679;50.872;4.332;2024-03-22T02:41:19;20.20;80.40
39665;DHT22;26679;50.872;4.332;2024-03-22T02:43:45;20.20;80.30
39665;DHT22;26679;50.872;4.332;2024-03-22T02:46:10;20.20;80.40
39665;DHT22;26679;50.872;4.332;2024-03-22T02:48:35;20.20;80.40
39665;DHT22;26679;50.872;4.332;2024-03-22T02:51:01;20.20;80.40
39665;DHT22;26679;50.872;4.332;2024-03-22T02:53:26;20.20;80.40
39665;DHT22;26679;50.872;4.332;2024-03-22T02:55:52;20.20;80.40
39665;DHT22;26679;50.872;4.332;2024-03-22T02:58:19;20.20;80.40
39665;DHT22;26679;50.872;4.332;2024-03-22T03:00:45;20.20;80.40
39665;DHT22;26679;50.872;4.332;2024-03-22T03:03:10;20.20;80.40
39665;DHT22;26679;50.872;4.332;2024-03-22T03:05:36;20.20;80.40
39665;DHT22;26679;50.872;4.332;2024-03-22T03:08:01;20.20;80.40
39665;DHT22;26679;50.872;4.332;2024-03-22T03:10:28;20.10;80.30
39665;DHT22;26679;50.872;4.332;2024-03-22T03:12:54;20.20;80.30
39665;DHT22;26679;50.872;4.332;2024-03-22T03:15:20;20.10;80.30
39665;DHT22;26679;50.872;4.332;2024-03-22T03:17:45;20.10;80.30
39665;DHT22;26679;50.872;4.332;2024-03-22T03:20:11;20.10;80.30
39665;DHT22;26679;50.872;4.332;2024-03-22T03:22:41;20.20;80.30
39665;DHT22;26679;50.872;4.332;2024-03-22T03:25:07;20.10;80.30
39665;DHT22;26679;50.872;4.332;2024-03-22T03:27:33;20.10;80.20
39665;DHT22;26679;50.872;4.332;2024-03-22T03:29:58;20.10;80.20
39665;DHT22;26679;50.872;4.332;2024-03-22T03:32:23;20.10;80.20
39665;DHT22;26679;50.872;4.332;2024-03-22T03:34:50;20.10;80.20
39665;DHT22;26679;50.872;4.332;2024-03-22T03:37:16;20.10;80.20
39665;DHT22;26679;50.872;4.332;2024-03-22T03:39:41;20.10;80.10
39665;DHT22;26679;50.872;4.332;2024-03-22T03:42:06;20.10;80.10
39665;DHT22;26679;50.872;4.332;2024-03-22T03:44:32;20.10;80.10
39665;DHT22;26679;50.872;4.332;2024-03-22T03:46:58;20.10;80.10
39665;DHT22;26679;50.872;4.332;2024-03-22T03:49:24;20.10;80.10
39665;DHT22;26679;50.872;4.332;2024-03-22T03:51:49;20.10;80.10
39665;DHT22;26679;50.872;4.332;2024-03-22T03:54:15;20.10;80.00
39665;DHT22;26679;50.872;4.332;2024-03-22T03:56:41;20.00;80.00
39665;DHT22;26679;50.872;4.332;2024-03-22T03:59:06;20.00;80.00
39665;DHT22;26679;50.872;4.332;2024-03-22T04:01:32;20.10;80.00
39665;DHT22;26679;50.872;4.332;2024-03-22T04:03:57;20.10;80.00
39665;DHT22;26679;50.872;4.332;2024-03-22T04:06:23;20.00;80.00
39665;DHT22;26679;50.872;4.332;2024-03-22T04:08:48;20.00;80.00
39665;DHT22;26679;50.872;4.332;2024-03-22T04:11:14;20.00;80.00
39665;DHT22;26679;50.872;4.332;2024-03-22T04:13:39;20.00;80.00
39665;DHT22;26679;50.872;4.332;2024-03-22T04:16:05;20.00;80.00
39665;DHT22;26679;50.872;4.332;2024-03-22T04:18:30;20.00;79.90
39665;DHT22;26679;50.872;4.332;2024-03-22T04:20:56;20.00;79.90
39665;DHT22;26679;50.872;4.332;2024-03-22T04:23:22;20.00;79.90
39665;DHT22;26679;50.872;4.332;2024-03-22T04:25:52;20.00;79.90
39665;DHT22;26679;50.872;4.332;2024-03-22T04:28:17;20.00;79.90
39665;DHT22;26679;50.872;4.332;2024-03-22T04:30:43;20.00;79.80
39665;DHT22;26679;50.872;4.332;2024-03-22T04:33:08;20.00;79.80
39665;DHT22;26679;50.872;4.332;2024-03-22T04:35:34;20.00;79.80
39665;DHT22;26679;50.872;4.332;2024-03-22T04:37:59;20.00;79.80
39665;DHT22;26679;50.872;4.332;2024-03-22T04:40:25;20.00;79.70
39665;DHT22;26679;50.872;4.332;2024-03-22T04:42:50;20.00;79.70
39665;DHT22;26679;50.872;4.332;2024-03-22T04:45:16;20.00;79.70
39665;DHT22;26679;50.872;4.332;2024-03-22T04:47:42;19.90;79.60
39665;DHT22;26679;50.872;4.332;2024-03-22T04:50:08;20.00;79.70
39665;DHT22;26679;50.872;4.332;2024-03-22T04:52:34;20.00;80.20
39665;DHT22;26679;50.872;4.332;2024-03-22T04:55:00;20.00;80.20
39665;DHT22;26679;50.872;4.332;2024-03-22T04:57:27;20.00;79.70
39665;DHT22;26679;50.872;4.332;2024-03-22T04:59:53;20.00;79.60
39665;DHT22;26679;50.872;4.332;2024-03-22T05:02:18;19.90;79.60
39665;DHT22;26679;50.872;4.332;2024-03-22T05:04:43;20.00;79.60
39665;DHT22;26679;50.872;4.332;2024-03-22T05:07:09;19.90;79.50
39665;DHT22;26679;50.872;4.332;2024-03-22T05:09:34;19.90;79.50
39665;DHT22;26679;50.872;4.332;2024-03-22T05:12:00;19.90;79.50
39665;DHT22;26679;50.872;4.332;2024-03-22T05:14:25;19.90;79.50
39665;DHT22;26679;50.872;4.332;2024-03-22T05:16:51;19.90;79.50
39665;DHT22;26679;50.872;4.332;2024-03-22T05:19:17;19.90;79.40
39665;DHT22;26679;50.872;4.332;2024-03-22T05:21:43;19.90;79.40
39665;DHT22;26679;50.872;4.332;2024-03-22T05:24:08;19.90;79.50
39665;DHT22;26679;50.872;4.332;2024-03-22T05:26:33;19.90;79.40
39665;DHT22;26679;50.872;4.332;2024-03-22T05:29:01;19.90;79.40
39665;DHT22;26679;50.872;4.332;2024-03-22T05:31:28;19.90;79.40
39665;DHT22;26679;50.872;4.332;2024-03-22T05:33:53;19.90;79.40
39665;DHT22;26679;50.872;4.332;2024-03-22T05:36:19;19.90;79.40
39665;DHT22;26679;50.872;4.332;2024-03-22T05:38:44;19.90;79.40
39665;DHT22;26679;50.872;4.332;2024-03-22T05:41:10;19.80;79.30
39665;DHT22;26679;50.872;4.332;2024-03-22T05:43:35;19.80;79.40
39665;DHT22;26679;50.872;4.332;2024-03-22T05:46:01;19.80;79.40
39665;DHT22;26679;50.872;4.332;2024-03-22T05:48:26;19.80;79.30
39665;DHT22;26679;50.872;4.332;2024-03-22T05:50:51;19.80;79.40
39665;DHT22;26679;50.872;4.332;2024-03-22T05:53:18;19.80;79.30
39665;DHT22;26679;50.872;4.332;2024-03-22T05:55:43;19.80;79.40
39665;DHT22;26679;50.872;4.332;2024-03-22T05:58:09;19.80;79.30
39665;DHT22;26679;50.872;4.332;2024-03-22T06:00:34;19.80;79.30
39665;DHT22;26679;50.872;4.332;2024-03-22T06:03:00;19.80;79.30
39665;DHT22;26679;50.872;4.332;2024-03-22T06:05:25;19.80;79.40
39665;DHT22;26679;50.872;4.332;2024-03-22T06:07:51;19.80;79.30
39665;DHT22;26679;50.872;4.332;2024-03-22T06:10:16;19.80;79.30
39665;DHT22;26679;50.872;4.332;2024-03-22T06:12:42;19.80;79.30
39665;DHT22;26679;50.872;4.332;2024-03-22T06:15:09;19.80;79.30
39665;DHT22;26679;50.872;4.332;2024-03-22T06:17:35;19.80;79.30
39665;DHT22;26679;50.872;4.332;2024-03-22T06:20:00;19.90;79.20
39665;DHT22;26679;50.872;4.332;2024-03-22T06:22:26;19.90;79.10
39665;DHT22;26679;50.872;4.332;2024-03-22T06:24:52;19.90;79.00
39665;DHT22;26679;50.872;4.332;2024-03-22T06:27:18;20.00;78.90
39665;DHT22;26679;50.872;4.332;2024-03-22T06:29:43;20.00;78.80
39665;DHT22;26679;50.872;4.332;2024-03-22T06:32:09;20.10;78.70
39665;DHT22;26679;50.872;4.332;2024-03-22T06:34:34;20.20;78.60
39665;DHT22;26679;50.872;4.332;2024-03-22T06:37:00;20.20;78.40
39665;DHT22;26679;50.872;4.332;2024-03-22T06:39:25;20.30;78.30
39665;DHT22;26679;50.872;4.332;2024-03-22T06:41:51;20.40;78.20
39665;DHT22;26679;50.872;4.332;2024-03-22T06:44:16;20.40;78.10
39665;DHT22;26679;50.872;4.332;2024-03-22T06:46:42;20.50;78.00
39665;DHT22;26679;50.872;4.332;2024-03-22T06:49:07;20.50;77.80
39665;DHT22;26679;50.872;4.332;2024-03-22T06:51:33;20.60;77.80
39665;DHT22;26679;50.872;4.332;2024-03-22T06:53:58;20.60;77.90
39665;DHT22;26679;50.872;4.332;2024-03-22T06:56:23;20.60;77.90
39665;DHT22;26679;50.872;4.332;2024-03-22T06:58:49;20.70;78.00
39665;DHT22;26679;50.872;4.332;2024-03-22T07:01:14;20.70;78.00
39665;DHT22;26679;50.872;4.332;2024-03-22T07:03:41;20.80;78.10
39665;DHT22;26679;50.872;4.332;2024-03-22T07:06:06;20.80;78.10
39665;DHT22;26679;50.872;4.332;2024-03-22T07:08:34;20.80;78.00
39665;DHT22;26679;50.872;4.332;2024-03-22T07:10:59;20.80;77.80
39665;DHT22;26679;50.872;4.332;2024-03-22T07:13:25;20.80;77.60
39665;DHT22;26679;50.872;4.332;2024-03-22T07:15:51;20.80;77.50
39665;DHT22;26679;50.872;4.332;2024-03-22T07:18:16;20.90;77.40
39665;DHT22;26679;50.872;4.332;2024-03-22T07:20:42;20.90;77.20
39665;DHT22;26679;50.872;4.332;2024-03-22T07:23:08;20.90;77.20
39665;DHT22;26679;50.872;4.332;2024-03-22T07:25:34;20.90;77.20
39665;DHT22;26679;50.872;4.332;2024-03-22T07:27:59;20.90;77.10
39665;DHT22;26679;50.872;4.332;2024-03-22T07:30:24;20.90;77.10
39665;DHT22;26679;50.872;4.332;2024-03-22T07:32:50;21.00;77.00
39665;DHT22;26679;50.872;4.332;2024-03-22T07:35:15;21.00;77.00
39665;DHT22;26679;50.872;4.332;2024-03-22T07:37:41;21.00;76.80
39665;DHT22;26679;50.872;4.332;2024-03-22T07:40:06;21.00;76.80
39665;DHT22;26679;50.872;4.332;2024-03-22T07:42:32;21.00;76.60
39665;DHT22;26679;50.872;4.332;2024-03-22T07:44:57;21.00;76.50
39665;DHT22;26679;50.872;4.332;2024-03-22T07:47:23;21.00;76.50
39665;DHT22;26679;50.872;4.332;2024-03-22T07:49:48;21.00;76.70
39665;DHT22;26679;50.872;4.332;2024-03-22T07:52:14;21.10;76.80
39665;DHT22;26679;50.872;4.332;2024-03-22T07:54:39;21.10;76.80
39665;DHT22;26679;50.872;4.332;2024-03-22T07:57:05;21.20;76.80
39665;DHT22;26679;50.872;4.332;2024-03-22T07:59:30;21.20;76.80
39665;DHT22;26679;50.872;4.332;2024-03-22T08:01:55;21.20;76.60
39665;DHT22;26679;50.872;4.332;2024-03-22T08:04:22;21.20;76.50
39665;DHT22;26679;50.872;4.332;2024-03-22T08:06:47;21.20;76.40
39665;DHT22;26679;50.872;4.332;2024-03-22T08:09:13;21.30;76.40
39665;DHT22;26679;50.872;4.332;2024-03-22T08:11:38;21.30;76.20
39665;DHT22;26679;50.872;4.332;2024-03-22T08:14:04;21.30;76.10
39665;DHT22;26679;50.872;4.332;2024-03-22T08:16:30;21.30;76.00
39665;DHT22;26679;50.872;4.332;2024-03-22T08:18:55;21.30;75.90
39665;DHT22;26679;50.872;4.332;2024-03-22T08:21:21;21.30;75.80
39665;DHT22;26679;50.872;4.332;2024-03-22T08:23:47;21.40;75.70
39665;DHT22;26679;50.872;4.332;2024-03-22T08:26:12;21.40;75.60
39665;DHT22;26679;50.872;4.332;2024-03-22T08:28:38;21.40;75.50
39665;DHT22;26679;50.872;4.332;2024-03-22T08:31:09;21.40;75.40
39665;DHT22;26679;50.872;4.332;2024-03-22T08:33:35;21.50;75.40
39665;DHT22;26679;50.872;4.332;2024-03-22T08:36:00;21.50;75.30
39665;DHT22;26679;50.872;4.332;2024-03-22T08:38:26;21.50;75.30
39665;DHT22;26679;50.872;4.332;2024-03-22T08:40:52;21.50;75.10
39665;DHT22;26679;50.872;4.332;2024-03-22T08:43:17;21.50;75.00
39665;DHT22;26679;50.872;4.332;2024-03-22T08:45:43;21.60;75.00
39665;DHT22;26679;50.872;4.332;2024-03-22T08:48:08;21.60;75.00
39665;DHT22;26679;50.872;4.332;2024-03-22T08:50:34;21.60;74.90
39665;DHT22;26679;50.872;4.332;2024-03-22T08:52:59;21.60;74.90
39665;DHT22;26679;50.872;4.332;2024-03-22T08:55:28;21.70;74.80
39665;DHT22;26679;50.872;4.332;2024-03-22T08:57:54;21.80;74.70
39665;DHT22;26679;50.872;4.332;2024-03-22T09:00:19;21.80;74.70
39665;DHT22;26679;50.872;4.332;2024-03-22T09:02:44;21.80;74.60
39665;DHT22;26679;50.872;4.332;2024-03-22T09:05:10;21.80;74.50
39665;DHT22;26679;50.872;4.332;2024-03-22T09:07:36;21.80;74.40
39665;DHT22;26679;50.872;4.332;2024-03-22T09:10:02;21.80;74.30
39665;DHT22;26679;50.872;4.332;2024-03-22T09:12:27;21.90;74.30
39665;DHT22;26679;50.872;4.332;2024-03-22T09:14:53;21.90;74.30
39665;DHT22;26679;50.872;4.332;2024-03-22T09:17:18;21.90;74.20
39665;DHT22;26679;50.872;4.332;2024-03-22T09:19:44;21.90;74.10
39665;DHT22;26679;50.872;4.332;2024-03-22T09:22:09;22.00;74.10
39665;DHT22;26679;50.872;4.332;2024-03-22T09:24:35;21.90;74.00
39665;DHT22;26679;50.872;4.332;2024-03-22T09:27:00;22.00;73.90
39665;DHT22;26679;50.872;4.332;2024-03-22T09:29:26;22.00;73.90
39665;DHT22;26679;50.872;4.332;2024-03-22T09:31:51;22.00;73.80
39665;DHT22;26679;50.872;4.332;2024-03-22T09:34:16;22.00;73.70
39665;DHT22;26679;50.872;4.332;2024-03-22T09:36:42;22.00;73.70
39665;DHT22;26679;50.872;4.332;2024-03-22T09:39:08;22.00;73.70
39665;DHT22;26679;50.872;4.332;2024-03-22T09:41:33;22.10;73.70
39665;DHT22;26679;50.872;4.332;2024-03-22T09:44:04;22.10;73.60
39665;DHT22;26679;50.872;4.332;2024-03-22T09:46:30;22.10;73.50
39665;DHT22;26679;50.872;4.332;2024-03-22T09:48:56;22.20;73.50
39665;DHT22;26679;50.872;4.332;2024-03-22T09:51:22;22.20;73.50
39665;DHT22;26679;50.872;4.332;2024-03-22T09:53:49;22.20;73.40
39665;DHT22;26679;50.872;4.332;2024-03-22T09:56:17;22.20;73.30
39665;DHT22;26679;50.872;4.332;2024-03-22T09:58:45;22.30;73.20
39665;DHT22;26679;50.872;4.332;2024-03-22T10:01:11;22.20;73.10
39665;DHT22;26679;50.872;4.332;2024-03-22T10:03:37;22.20;73.20
39665;DHT22;26679;50.872;4.332;2024-03-22T10:06:03;22.20;73.10
39665;DHT22;26679;50.872;4.332;2024-03-22T10:08:28;22.20;73.10
39665;DHT22;26679;50.872;4.332;2024-03-22T10:10:54;22.20;73.00
39665;DHT22;26679;50.872;4.332;2024-03-22T10:13:20;22.20;73.00
39665;DHT22;26679;50.872;4.332;2024-03-22T10:15:46;22.20;73.50
39665;DHT22;26679;50.872;4.332;2024-03-22T10:18:11;22.20;72.90
39665;DHT22;26679;50.872;4.332;2024-03-22T10:20:37;22.10;72.80
39665;DHT22;26679;50.872;4.332;2024-03-22T10:23:03;22.10;72.90
39665;DHT22;26679;50.872;4.332;2024-03-22T10:25:29;22.00;72.80
39665;DHT22;26679;50.872;4.332;2024-03-22T10:27:54;21.90;72.80
39665;DHT22;26679;50.872;4.332;2024-03-22T10:30:20;21.90;72.90
39665;DHT22;26679;50.872;4.332;2024-03-22T10:32:46;21.90;72.90
39665;DHT22;26679;50.872;4.332;2024-03-22T10:35:13;21.90;72.90
39665;DHT22;26679;50.872;4.332;2024-03-22T10:37:39;21.90;72.90
39665;DHT22;26679;50.872;4.332;2024-03-22T10:40:05;21.80;72.90
39665;DHT22;26679;50.872;4.332;2024-03-22T10:42:39;21.80;72.90
39665;DHT22;26679;50.872;4.332;2024-03-22T10:45:05;21.80;72.80
39665;DHT22;26679;50.872;4.332;2024-03-22T10:47:32;21.80;72.80
39665;DHT22;26679;50.872;4.332;2024-03-22T10:50:01;21.80;72.80
39665;DHT22;26679;50.872;4.332;2024-03-22T10:52:29;21.90;72.90
39665;DHT22;26679;50.872;4.332;2024-03-22T10:54:56;21.90;72.80
39665;DHT22;26679;50.872;4.332;2024-03-22T10:57:22;21.80;72.70
39665;DHT22;26679;50.872;4.332;2024-03-22T10:59:48;21.80;72.70
39665;DHT22;26679;50.872;4.332;2024-03-22T11:02:13;21.80;72.70
39665;DHT22;26679;50.872;4.332;2024-03-22T11:04:39;21.80;72.70
39665;DHT22;26679;50.872;4.332;2024-03-22T11:07:04;21.80;72.70
39665;DHT22;26679;50.872;4.332;2024-03-22T11:09:30;21.80;72.70
39665;DHT22;26679;50.872;4.332;2024-03-22T11:11:55;21.80;72.70
39665;DHT22;26679;50.872;4.332;2024-03-22T11:14:26;21.80;72.70
39665;DHT22;26679;50.872;4.332;2024-03-22T11:16:52;21.80;72.70
39665;DHT22;26679;50.872;4.332;2024-03-22T11:19:18;21.80;72.80
39665;DHT22;26679;50.872;4.332;2024-03-22T11:21:43;21.70;72.70
39665;DHT22;26679;50.872;4.332;2024-03-22T11:24:09;21.80;72.80
39665;DHT22;26679;50.872;4.332;2024-03-22T11:26:36;21.80;72.70
39665;DHT22;26679;50.872;4.332;2024-03-22T11:29:01;21.80;72.80
39665;DHT22;26679;50.872;4.332;2024-03-22T11:31:27;21.70;72.70
39665;DHT22;26679;50.872;4.332;2024-03-22T11:33:53;21.70;72.70
39665;DHT22;26679;50.872;4.332;2024-03-22T11:36:19;21.60;72.70
39665;DHT22;26679;50.872;4.332;2024-03-22T11:38:46;21.60;72.80
39665;DHT22;26679;50.872;4.332;2024-03-22T11:41:11;21.60;72.90
39665;DHT22;26679;50.872;4.332;2024-03-22T11:43:38;21.60;72.90
39665;DHT22;26679;50.872;4.332;2024-03-22T11:46:03;21.50;72.90
39665;DHT22;26679;50.872;4.332;2024-03-22T11:48:29;21.50;73.10
39665;DHT22;26679;50.872;4.332;2024-03-22T11:50:54;21.50;73.30
39665;DHT22;26679;50.872;4.332;2024-03-22T11:53:21;21.50;73.50
39665;DHT22;26679;50.872;4.332;2024-03-22T11:55:49;21.50;73.70
39665;DHT22;26679;50.872;4.332;2024-03-22T11:58:14;21.50;73.90
39665;DHT22;26679;50.872;4.332;2024-03-22T12:00:41;21.50;74.00
39665;DHT22;26679;50.872;4.332;2024-03-22T12:03:07;21.50;74.10
39665;DHT22;26679;50.872;4.332;2024-03-22T12:05:32;21.50;74.20
39665;DHT22;26679;50.872;4.332;2024-03-22T12:07:58;21.50;74.20
39665;DHT22;26679;50.872;4.332;2024-03-22T12:10:23;21.50;74.20
39665;DHT22;26679;50.872;4.332;2024-03-22T12:12:49;21.50;74.20
39665;DHT22;26679;50.872;4.332;2024-03-22T12:15:14;21.50;74.20
39665;DHT22;26679;50.872;4.332;2024-03-22T12:20:06;21.50;74.10
39665;DHT22;26679;50.872;4.332;2024-03-22T12:22:34;21.50;74.10
39665;DHT22;26679;50.872;4.332;2024-03-22T12:24:59;21.50;74.00
39665;DHT22;26679;50.872;4.332;2024-03-22T12:27:25;21.40;74.00
39665;DHT22;26679;50.872;4.332;2024-03-22T12:29:50;21.40;74.00
39665;DHT22;26679;50.872;4.332;2024-03-22T12:32:16;21.40;74.10
39665;DHT22;26679;50.872;4.332;2024-03-22T12:34:41;21.40;74.20
39665;DHT22;26679;50.872;4.332;2024-03-22T12:37:07;21.40;74.30
39665;DHT22;26679;50.872;4.332;2024-03-22T12:39:32;21.30;74.30
39665;DHT22;26679;50.872;4.332;2024-03-22T12:41:58;21.20;74.30
39665;DHT22;26679;50.872;4.332;2024-03-22T12:44:23;21.30;74.40
39665;DHT22;26679;50.872;4.332;2024-03-22T12:46:49;21.30;74.40
39665;DHT22;26679;50.872;4.332;2024-03-22T12:49:16;21.20;74.30
39665;DHT22;26679;50.872;4.332;2024-03-22T12:51:42;21.20;74.30
39665;DHT22;26679;50.872;4.332;2024-03-22T12:54:07;21.20;74.40
39665;DHT22;26679;50.872;4.332;2024-03-22T12:56:34;21.20;74.40
39665;DHT22;26679;50.872;4.332;2024-03-22T12:58:59;21.10;74.30
39665;DHT22;26679;50.872;4.332;2024-03-22T13:01:25;21.20;74.40
39665;DHT22;26679;50.872;4.332;2024-03-22T13:03:50;21.10;74.30
39665;DHT22;26679;50.872;4.332;2024-03-22T13:06:16;21.10;74.40
39665;DHT22;26679;50.872;4.332;2024-03-22T13:08:41;21.10;74.40
39665;DHT22;26679;50.872;4.332;2024-03-22T13:11:07;21.10;74.40
39665;DHT22;26679;50.872;4.332;2024-03-22T13:13:36;21.10;74.50
39665;DHT22;26679;50.872;4.332;2024-03-22T13:16:01;21.10;74.50
39665;DHT22;26679;50.872;4.332;2024-03-22T13:18:28;21.10;74.50
39665;DHT22;26679;50.872;4.332;2024-03-22T13:20:54;21.10;74.50
39665;DHT22;26679;50.872;4.332;2024-03-22T13:23:19;21.10;74.50
39665;DHT22;26679;50.872;4.332;2024-03-22T13:25:45;21.10;74.50
39665;DHT22;26679;50.872;4.332;2024-03-22T13:28:10;21.00;74.40
39665;DHT22;26679;50.872;4.332;2024-03-22T13:30:36;21.10;74.40
39665;DHT22;26679;50.872;4.332;2024-03-22T13:33:02;21.10;74.50
39665;DHT22;26679;50.872;4.332;2024-03-22T13:35:28;21.10;74.40
39665;DHT22;26679;50.872;4.332;2024-03-22T13:37:54;21.10;74.30
39665;DHT22;26679;50.872;4.332;2024-03-22T13:40:19;21.10;74.30
39665;DHT22;26679;50.872;4.332;2024-03-22T13:42:44;21.10;74.30
39665;DHT22;26679;50.872;4.332;2024-03-22T13:45:10;21.10;74.30
39665;DHT22;26679;50.872;4.332;2024-03-22T13:47:35;21.10;74.40
39665;DHT22;26679;50.872;4.332;2024-03-22T13:50:06;21.10;74.40
39665;DHT22;26679;50.872;4.332;2024-03-22T13:52:31;21.00;74.40
39665;DHT22;26679;50.872;4.332;2024-03-22T13:54:57;21.10;74.40
39665;DHT22;26679;50.872;4.332;2024-03-22T13:57:25;21.00;74.40
39665;DHT22;26679;50.872;4.332;2024-03-22T13:59:52;21.00;74.40
39665;DHT22;26679;50.872;4.332;2024-03-22T14:02:18;21.00;74.50
39665;DHT22;26679;50.872;4.332;2024-03-22T14:04:45;21.00;74.70
39665;DHT22;26679;50.872;4.332;2024-03-22T14:07:10;21.00;74.80
39665;DHT22;26679;50.872;4.332;2024-03-22T14:09:36;21.00;74.90
39665;DHT22;26679;50.872;4.332;2024-03-22T14:12:01;21.00;74.90
39665;DHT22;26679;50.872;4.332;2024-03-22T14:14:27;21.00;74.90
39665;DHT22;26679;50.872;4.332;2024-03-22T14:16:53;21.10;75.40
39665;DHT22;26679;50.872;4.332;2024-03-22T14:19:19;21.00;75.40
39665;DHT22;26679;50.872;4.332;2024-03-22T14:21:45;21.00;75.50
39665;DHT22;26679;50.872;4.332;2024-03-22T14:24:11;21.00;75.60
39665;DHT22;26679;50.872;4.332;2024-03-22T14:26:37;21.00;75.70
39665;DHT22;26679;50.872;4.332;2024-03-22T14:29:08;21.00;75.80
39665;DHT22;26679;50.872;4.332;2024-03-22T14:31:34;21.00;75.80
39665;DHT22;26679;50.872;4.332;2024-03-22T14:33:59;21.00;75.90
39665;DHT22;26679;50.872;4.332;2024-03-22T14:36:25;21.00;76.10
39665;DHT22;26679;50.872;4.332;2024-03-22T14:38:50;21.00;76.10
39665;DHT22;26679;50.872;4.332;2024-03-22T14:41:16;21.00;76.10
39665;DHT22;26679;50.872;4.332;2024-03-22T14:43:41;21.00;76.10
39665;DHT22;26679;50.872;4.332;2024-03-22T14:46:07;21.00;76.10
39665;DHT22;26679;50.872;4.332;2024-03-22T14:48:32;21.00;76.10
39665;DHT22;26679;50.872;4.332;2024-03-22T14:50:58;21.00;76.10
39665;DHT22;26679;50.872;4.332;2024-03-22T14:53:23;21.00;76.20
39665;DHT22;26679;50.872;4.332;2024-03-22T14:55:57;21.00;76.30
39665;DHT22;26679;50.872;4.332;2024-03-22T14:58:27;21.00;76.50
39665;DHT22;26679;50.872;4.332;2024-03-22T15:01:02;20.90;76.80
39665;DHT22;26679;50.872;4.332;2024-03-22T15:03:28;21.00;77.00
39665;DHT22;26679;50.872;4.332;2024-03-22T15:05:54;20.90;77.00
39665;DHT22;26679;50.872;4.332;2024-03-22T15:08:20;20.90;77.20
39665;DHT22;26679;50.872;4.332;2024-03-22T15:10:46;20.90;77.30
39665;DHT22;26679;50.872;4.332;2024-03-22T15:13:11;20.90;77.30
39665;DHT22;26679;50.872;4.332;2024-03-22T15:15:38;20.90;77.40
39665;DHT22;26679;50.872;4.332;2024-03-22T15:18:03;20.90;77.40
39665;DHT22;26679;50.872;4.332;2024-03-22T15:20:31;20.90;77.50
39665;DHT22;26679;50.872;4.332;2024-03-22T15:22:56;20.90;77.70